Humidity-temperature Sensor

Selected Measurement Type: Relative Humidity

 
Relative Humidity [%]     6 entries per hour
Showing data from 10/21/2014 (00:00:00 Z) to 10/20/2014 (00:01:00 Z)
Previous Next [ Day | 3-Days | 7-Days ]
First Last
Prev [ Day | 3-Days | 7-Days ] Next
First Last

Start Time:     :
End Time:     :     
Time (in GMT) :00 :50 :40 :30 :20 :10
Previous Next [ Day | 3-Days | 7-Days ]
First Last
Prev [ Day | 3-Days | 7-Days ] Next
First Last


123 => good data
MM => data is determined as missing
-- => data not received/configured
Back to Top Back to Top
10/21/2014 00:00 to 23:10 77.04 77.68 77.34 77.79 78.17 78.85
10/20/2014 23:00 to 22:10 77.76 76.83 77.34 78.59 78.27 77.98
10/20/2014 22:00 to 21:10 78.04 78.78 78.74 77.66 77.59 78.08
10/20/2014 21:00 to 20:10 77.66 76.92 77.13 77.76 76.53 75.62
10/20/2014 20:00 to 19:10 78.04 77.98 77.13 78.42 78.76 79.23
10/20/2014 19:00 to 18:10 79.06 79.16 79.38 79.88 79.14 78.48
10/20/2014 18:00 to 17:10 78.59 78.76 78.51 77.66 77.36 77.45
10/20/2014 17:00 to 16:10 77.74 78.27 78.42 79.42 79.40 78.57
10/20/2014 16:00 to 15:10 78.68 77.98 77.74 79.97 78.76 78.23
10/20/2014 15:00 to 14:10 78.19 78.23 79.38 79.23 79.21 79.80
10/20/2014 14:00 to 13:10 80.16 80.12 79.59 78.70 77.85 77.70
10/20/2014 13:00 to 12:10 78.53 79.12 78.76 78.74 78.82 78.63
10/20/2014 12:00 to 11:10 77.87 78.06 78.17 78.08 78.53 78.36
10/20/2014 11:00 to 10:10 78.23 77.68 77.49 76.45 77.21 77.47
10/20/2014 10:00 to 9:10 78.12 77.93 77.74 77.28 76.56 76.83
10/20/2014 09:00 to 8:10 77.21 76.79 77.00 76.75 76.62 76.87
10/20/2014 08:00 to 7:10 77.30 77.04 77.00 76.37 75.96 76.83
10/20/2014 07:00 to 6:10 76.17 75.98 76.70 77.81 77.32 77.36
10/20/2014 06:00 to 5:10 76.64 77.04 76.41 76.73 76.51 76.62
10/20/2014 05:00 to 4:10 76.68 77.02 77.06 76.15 76.00 76.45
10/20/2014 04:00 to 3:10 76.07 75.01 75.92 75.73 75.73 74.99
10/20/2014 03:00 to 2:10 74.03 74.65 75.37 75.03 74.42 74.10
10/20/2014 02:00 to 1:10 73.78 74.16 72.83 73.91 73.06 72.55
10/20/2014 01:00 to 0:10 72.53 73.89 74.52 74.22 74.01 73.74